YBML weather

CLOSED Bromelton Airport
Queensland, Australia

Public forecast

Using degrees Celsius for public forecast. Weather courtesy of forecast.io.

Closest aviation weather report (METAR) to Bromelton Airport

Closest report is RAAF Base Amberley, 22.1 nm (40.9 km) NNW. Retrieved 2020/03/31 21:30 UTC (16 minutes ago):

YAMB 312130Z 00000KT CAVOK 20/18 Q1017

Closest aviation forecast (TAF) to Bromelton Airport

Closest forecast is RAAF Base Amberley, 22.1 nm (40.9 km) NNW. Retrieved 2020/03/31 18:00 UTC (4 hours ago):

TAF YAMB 311602Z 3118/0112 VRB03KT 9999 MIFG FEW020 FM312100 14006KT 9999 NSW FEW030 FM010400 10009KT 9999 SCT040